createdAt,value
2023-04-18T00:01:01.858Z,102047.16
2023-04-18T00:03:32.590Z,102044.14
2023-04-18T00:06:03.555Z,102035.90
2023-04-18T00:08:34.231Z,102039.45
2023-04-18T00:11:04.744Z,102037.56
2023-04-18T00:13:35.644Z,102042.95
2023-04-18T00:16:07.982Z,102041.33
2023-04-18T00:18:39.976Z,102040.55
2023-04-18T00:21:10.412Z,102041.25
2023-04-18T00:23:41.682Z,102038.60
2023-04-18T00:26:12.226Z,102040.27
2023-04-18T00:28:42.990Z,102040.63
2023-04-18T00:31:13.544Z,102035.27
2023-04-18T00:33:44.386Z,102038.52
2023-04-18T00:36:15.099Z,102036.23
2023-04-18T00:38:45.545Z,102039.71
2023-04-18T00:41:16.559Z,102037.77
2023-04-18T00:43:47.525Z,102040.75
2023-04-18T00:46:18.009Z,102039.98
2023-04-18T00:48:48.725Z,102039.81
2023-04-18T00:51:19.378Z,102039.06
2023-04-18T00:53:49.897Z,102038.58
2023-04-18T00:56:20.420Z,102037.86
2023-04-18T00:58:51.252Z,102037.16
2023-04-18T01:01:22.065Z,102039.02
2023-04-18T01:03:52.707Z,102037.70
2023-04-18T01:06:23.756Z,102038.81
2023-04-18T01:08:54.933Z,102043.59
2023-04-18T01:11:25.650Z,102041.08
2023-04-18T01:14:03.608Z,102037.61
2023-04-18T01:16:33.629Z,102038.31
2023-04-18T01:19:05.715Z,102037.73
2023-04-18T01:21:37.361Z,102038.42
2023-04-18T01:24:12.727Z,102034.77
2023-04-18T01:26:45.266Z,102034.13
2023-04-18T01:29:16.000Z,102034.58
2023-04-18T01:31:46.503Z,102031.26
2023-04-18T01:34:17.748Z,102029.59
2023-04-18T01:36:48.852Z,102028.62
2023-04-18T01:39:19.350Z,102027.50
2023-04-18T01:41:49.743Z,102024.70
2023-04-18T01:44:20.520Z,102026.73
2023-04-18T01:46:51.838Z,102028.14
2023-04-18T01:49:22.622Z,102028.04
2023-04-18T01:51:53.087Z,102024.02
2023-04-18T01:54:23.486Z,102021.62
2023-04-18T01:56:54.456Z,102022.83
2023-04-18T01:59:24.867Z,102026.44
2023-04-18T02:01:55.688Z,102025.05
2023-04-18T02:04:26.451Z,102021.06
2023-04-18T02:06:57.724Z,102022.11
2023-04-18T02:09:28.501Z,102019.11
2023-04-18T02:11:59.453Z,102015.77
2023-04-18T02:14:32.246Z,102014.73
2023-04-18T02:17:02.881Z,102009.94
2023-04-18T02:19:33.484Z,102013.13
2023-04-18T02:22:04.214Z,102009.05
2023-04-18T02:24:34.921Z,102013.23
2023-04-18T02:27:05.713Z,102011.98
2023-04-18T02:29:36.436Z,102011.80
2023-04-18T02:32:08.064Z,102008.20
2023-04-18T02:34:39.356Z,102011.51
2023-04-18T02:37:09.779Z,102009.73
2023-04-18T02:39:40.243Z,102005.98
2023-04-18T02:42:10.636Z,102008.93
2023-04-18T02:44:41.422Z,102007.55
2023-04-18T02:47:11.780Z,102007.90
2023-04-18T02:49:42.222Z,102008.98
2023-04-18T02:52:12.976Z,102010.45
2023-04-18T02:54:43.652Z,102007.69
2023-04-18T02:57:14.498Z,102008.10
2023-04-18T02:59:45.013Z,102008.63
2023-04-18T03:02:15.814Z,102010.03
2023-04-18T03:04:46.470Z,102014.22
2023-04-18T03:07:16.976Z,102016.60
2023-04-18T03:09:47.372Z,102017.20
2023-04-18T03:12:17.881Z,102016.91
2023-04-18T03:14:48.392Z,102018.29
2023-04-18T03:17:19.138Z,102020.46
2023-04-18T03:19:49.828Z,102020.84
2023-04-18T03:22:20.255Z,102022.11
2023-04-18T03:24:51.036Z,102024.20
2023-04-18T03:27:21.598Z,102024.98
2023-04-18T03:29:52.004Z,102022.24
2023-04-18T03:32:22.555Z,102022.14
2023-04-18T03:34:54.151Z,102026.66
2023-04-18T03:37:24.782Z,102028.55
2023-04-18T03:39:55.222Z,102028.03
2023-04-18T03:42:25.978Z,102027.45
2023-04-18T03:44:56.900Z,102027.45
2023-04-18T03:47:27.439Z,102032.45
2023-04-18T03:49:57.929Z,102035.48
2023-04-18T03:52:29.837Z,102037.55
2023-04-18T03:55:00.846Z,102037.06
2023-04-18T03:57:31.856Z,102043.55
2023-04-18T04:00:03.493Z,102040.86
2023-04-18T04:02:34.450Z,102043.58
2023-04-18T04:05:05.796Z,102043.15
2023-04-18T04:07:36.258Z,102041.17
2023-04-18T04:10:07.794Z,102043.85
2023-04-18T04:12:38.543Z,102042.39
2023-04-18T04:15:10.628Z,102047.11
2023-04-18T04:17:41.729Z,102043.30
2023-04-18T04:20:13.616Z,102048.11
2023-04-18T04:22:44.100Z,102051.86
2023-04-18T04:25:15.216Z,102052.82
2023-04-18T04:27:46.025Z,102058.11
2023-04-18T04:30:17.000Z,102059.95
2023-04-18T04:32:47.694Z,102061.44
2023-04-18T04:35:18.808Z,102064.55
2023-04-18T04:37:50.682Z,102063.33
2023-04-18T04:40:22.961Z,102074.27
2023-04-18T04:42:54.397Z,102073.92
2023-04-18T04:45:25.032Z,102075.56
2023-04-18T04:47:55.702Z,102077.24
2023-04-18T04:50:26.282Z,102082.14
2023-04-18T04:52:56.955Z,102084.17
2023-04-18T04:55:27.438Z,102082.05
2023-04-18T04:57:58.175Z,102083.33
2023-04-18T05:00:28.806Z,102086.80
2023-04-18T05:02:59.841Z,102086.26
2023-04-18T05:05:30.963Z,102089.27
2023-04-18T05:08:01.394Z,102085.91
2023-04-18T05:10:32.492Z,102090.60
2023-04-18T05:13:03.388Z,102095.61
2023-04-18T05:15:33.929Z,102097.23
2023-04-18T05:18:04.824Z,102094.10
2023-04-18T05:20:35.361Z,102092.15
2023-04-18T05:23:05.956Z,102090.42
2023-04-18T05:25:36.748Z,102096.35
2023-04-18T05:28:08.422Z,102099.23
2023-04-18T05:30:38.960Z,102101.09
2023-04-18T05:33:10.860Z,102106.58
2023-04-18T05:35:41.323Z,102107.21
2023-04-18T05:38:12.121Z,102109.86
2023-04-18T05:40:43.389Z,102110.19
2023-04-18T05:43:13.963Z,102108.05
2023-04-18T05:45:44.376Z,102111.55
2023-04-18T05:48:14.782Z,102110.18
2023-04-18T05:50:45.283Z,102113.67
2023-04-18T05:53:15.970Z,102112.09
2023-04-18T05:55:48.740Z,102110.91
2023-04-18T05:58:19.306Z,102116.81
2023-04-18T06:00:49.910Z,102118.55
2023-04-18T06:03:20.769Z,102120.80
2023-04-18T06:05:51.763Z,102120.89
2023-04-18T06:08:22.196Z,102118.83
2023-04-18T06:10:52.743Z,102124.86
2023-04-18T06:13:23.421Z,102127.25
2023-04-18T06:15:53.960Z,102124.98
2023-04-18T06:18:24.590Z,102125.30
2023-04-18T06:20:55.236Z,102128.17
2023-04-18T06:23:25.667Z,102133.67
2023-04-18T06:25:56.581Z,102133.16
2023-04-18T06:28:27.131Z,102139.87
2023-04-18T06:30:57.559Z,102140.30
2023-04-18T06:33:28.638Z,102144.50
2023-04-18T06:35:59.156Z,102146.88
2023-04-18T06:38:29.895Z,102147.30
2023-04-18T06:41:00.436Z,102151.27
2023-04-18T06:43:31.240Z,102149.69
2023-04-18T06:46:02.052Z,102152.76
2023-04-18T06:48:32.851Z,102151.38
2023-04-18T06:51:03.228Z,102149.47
2023-04-18T06:53:33.641Z,102150.02
2023-04-18T06:56:05.259Z,102151.69
2023-04-18T06:58:35.956Z,102156.30
2023-04-18T07:01:06.515Z,102158.95
2023-04-18T07:03:37.291Z,102165.12
2023-04-18T07:06:10.555Z,102168.39
2023-04-18T07:08:41.876Z,102170.23
2023-04-18T07:11:13.213Z,102167.05
2023-04-18T07:13:43.541Z,102171.02
2023-04-18T07:16:14.178Z,102167.55
2023-04-18T07:18:45.115Z,102170.99
2023-04-18T07:21:15.655Z,102172.70
2023-04-18T07:23:46.349Z,102172.23
2023-04-18T07:26:17.087Z,102175.42
2023-04-18T07:28:47.556Z,102171.84
2023-04-18T07:31:19.463Z,102172.73
2023-04-18T07:33:49.960Z,102173.21
2023-04-18T07:36:20.513Z,102172.47
2023-04-18T07:38:51.765Z,102171.56
2023-04-18T07:41:22.187Z,102170.50
2023-04-18T07:43:53.111Z,102168.27
2023-04-18T07:46:23.851Z,102170.17
2023-04-18T07:48:54.696Z,102171.55
2023-04-18T07:51:31.077Z,102173.15
2023-04-18T07:54:02.227Z,102168.02
2023-04-18T07:56:32.783Z,102175.04
2023-04-18T07:59:03.178Z,102174.63
2023-04-18T08:01:33.694Z,102175.09
2023-04-18T08:04:04.577Z,102172.77
2023-04-18T08:06:35.714Z,102173.27
2023-04-18T08:09:06.476Z,102174.77
2023-04-18T08:11:37.220Z,102176.26
2023-04-18T08:14:07.966Z,102173.83
2023-04-18T08:16:38.751Z,102175.36
2023-04-18T08:19:09.216Z,102169.52
2023-04-18T08:21:40.059Z,102174.70
2023-04-18T08:24:11.172Z,102176.70
2023-04-18T08:26:42.139Z,102176.11
2023-04-18T08:29:13.337Z,102173.09
2023-04-18T08:31:44.800Z,102176.24
2023-04-18T08:34:15.272Z,102178.47
2023-04-18T08:36:46.789Z,102181.27
2023-04-18T08:39:18.044Z,102181.14
2023-04-18T08:41:54.486Z,102180.08
2023-04-18T08:44:24.898Z,102182.45
2023-04-18T08:46:55.874Z,102186.79
2023-04-18T08:49:26.780Z,102192.64
2023-04-18T08:51:58.497Z,102190.83
2023-04-18T08:54:30.409Z,102192.38
2023-04-18T08:57:08.777Z,102192.98
2023-04-18T08:59:40.409Z,102187.89
2023-04-18T09:02:11.721Z,102187.54
2023-04-18T09:04:44.927Z,102184.36
2023-04-18T09:07:18.218Z,102187.02
2023-04-18T09:09:50.309Z,102189.79
2023-04-18T09:12:22.567Z,102191.75
2023-04-18T09:14:56.538Z,102191.19
2023-04-18T09:17:38.007Z,102194.52
2023-04-18T09:20:11.157Z,102196.47
2023-04-18T09:22:50.486Z,102198.86
2023-04-18T09:25:34.888Z,102193.45
2023-04-18T09:28:06.479Z,102196.91
2023-04-18T09:30:39.590Z,102194.38
2023-04-18T09:33:12.688Z,102195.95
2023-04-18T09:35:43.450Z,102197.50
2023-04-18T09:38:13.929Z,102193.15
2023-04-18T09:40:44.278Z,102195.41
2023-04-18T09:43:23.733Z,102198.11
2023-04-18T09:45:54.503Z,102197.39
2023-04-18T09:48:24.885Z,102199.73
2023-04-18T09:50:56.963Z,102195.77
2023-04-18T09:53:27.981Z,102196.69
2023-04-18T09:55:58.577Z,102200.52
2023-04-18T09:58:33.680Z,102195.66
2023-04-18T10:01:06.292Z,102200.48
2023-04-18T10:03:42.608Z,102199.70
2023-04-18T10:06:16.928Z,102197.67
2023-04-18T10:08:48.927Z,102201.27
2023-04-18T10:11:20.356Z,102196.14
2023-04-18T10:13:54.529Z,102196.72
2023-04-18T10:16:26.616Z,102196.03
2023-04-18T10:18:58.291Z,102195.27
2023-04-18T10:21:31.394Z,102193.56
2023-04-18T10:24:01.942Z,102194.96
2023-04-18T10:26:50.306Z,102196.05
2023-04-18T10:29:46.497Z,102195.68
2023-04-18T10:32:17.406Z,102194.85
2023-04-18T10:34:49.350Z,102194.30
2023-04-18T10:37:19.814Z,102194.42
2023-04-18T10:40:00.332Z,102192.58
2023-04-18T10:43:00.378Z,102194.99
2023-04-18T10:45:36.173Z,102195.91
2023-04-18T10:48:29.809Z,102195.74
2023-04-18T10:51:20.804Z,102195.87
2023-04-18T10:53:57.221Z,102191.80
2023-04-18T10:56:28.900Z,102194.86
2023-04-18T10:59:04.408Z,102196.11
2023-04-18T11:01:38.031Z,102196.92
2023-04-18T11:04:15.512Z,102192.52
2023-04-18T11:06:51.515Z,102200.10
2023-04-18T11:09:22.478Z,102197.20
2023-04-18T11:12:07.576Z,102199.20
2023-04-18T11:14:48.700Z,102197.69
2023-04-18T11:17:20.584Z,102197.02
2023-04-18T11:19:51.562Z,102193.49
2023-04-18T11:22:22.030Z,102195.41
2023-04-18T11:24:52.863Z,102197.64
2023-04-18T11:27:27.750Z,102193.30
2023-04-18T11:29:58.405Z,102193.39
2023-04-18T11:32:29.236Z,102187.45
2023-04-18T11:34:59.812Z,102183.33
2023-04-18T11:37:30.682Z,102184.23
2023-04-18T11:40:01.342Z,102185.98
2023-04-18T11:42:35.280Z,102181.95
2023-04-18T11:45:09.634Z,102178.50
2023-04-18T11:47:41.797Z,102186.23
2023-04-18T11:50:13.819Z,102185.42
2023-04-18T11:52:50.526Z,102190.98
2023-04-18T11:55:23.841Z,102186.63
2023-04-18T11:57:55.354Z,102193.47
2023-04-18T12:00:38.416Z,102191.48
2023-04-18T12:03:16.155Z,102192.45
2023-04-18T12:05:47.554Z,102188.56
2023-04-18T12:08:21.785Z,102188.98
2023-04-18T12:10:54.149Z,102186.23
2023-04-18T12:13:32.282Z,102182.80
2023-04-18T12:16:04.143Z,102177.33
2023-04-18T12:18:34.649Z,102172.52
2023-04-18T12:21:07.525Z,102169.55
2023-04-18T12:23:40.054Z,102164.33
2023-04-18T12:26:15.048Z,102157.70
2023-04-18T12:28:51.123Z,102157.80
2023-04-18T12:31:22.607Z,102154.75
2023-04-18T12:33:54.383Z,102155.36
2023-04-18T12:36:25.281Z,102158.73
2023-04-18T12:38:55.834Z,102159.00
2023-04-18T12:41:26.544Z,102151.22
2023-04-18T12:43:56.983Z,102154.81
2023-04-18T12:46:28.389Z,102153.93
2023-04-18T12:48:58.854Z,102147.86
2023-04-18T12:51:29.322Z,102150.20
2023-04-18T12:53:59.849Z,102143.33
2023-04-18T12:56:30.382Z,102147.05
2023-04-18T12:59:01.137Z,102144.00
2023-04-18T13:01:31.626Z,102154.07
2023-04-18T13:04:11.825Z,102155.10
2023-04-18T13:06:43.773Z,102155.27
2023-04-18T13:09:16.958Z,102152.23
2023-04-18T13:11:49.547Z,102148.33
2023-04-18T13:14:21.189Z,102153.29
2023-04-18T13:16:51.867Z,102149.95
2023-04-18T13:19:22.500Z,102150.45
2023-04-18T13:21:53.268Z,102148.80
2023-04-18T13:24:23.754Z,102148.15
2023-04-18T13:26:54.339Z,102146.79
2023-04-18T13:29:25.042Z,102141.36
2023-04-18T13:31:55.543Z,102138.61
2023-04-18T13:34:26.090Z,102131.56
2023-04-18T13:36:58.976Z,102125.55
2023-04-18T13:39:29.668Z,102132.13
2023-04-18T13:42:02.618Z,102135.93
2023-04-18T13:44:34.114Z,102130.66
2023-04-18T13:47:05.393Z,102131.42
2023-04-18T13:49:36.363Z,102125.54
2023-04-18T13:52:07.557Z,102123.89
2023-04-18T13:54:38.333Z,102121.52
2023-04-18T13:57:11.576Z,102125.48
2023-04-18T13:59:42.179Z,102125.70
2023-04-18T14:02:13.217Z,102130.46
2023-04-18T14:04:43.908Z,102124.33
2023-04-18T14:07:14.467Z,102122.06
2023-04-18T14:09:45.001Z,102125.20
2023-04-18T14:12:15.523Z,102118.45
2023-04-18T14:14:46.007Z,102114.52
2023-04-18T14:17:16.533Z,102114.34
2023-04-18T14:19:48.005Z,102111.46
2023-04-18T14:22:18.418Z,102114.53
2023-04-18T14:24:49.149Z,102111.12
2023-04-18T14:27:19.705Z,102111.83
2023-04-18T14:29:50.576Z,102110.06
2023-04-18T14:32:21.138Z,102111.91
2023-04-18T14:34:52.466Z,102105.64
2023-04-18T14:37:23.050Z,102107.14
2023-04-18T14:39:53.619Z,102104.56
2023-04-18T14:42:24.214Z,102108.71
2023-04-18T14:44:55.325Z,102108.52
2023-04-18T14:47:31.218Z,102103.48
2023-04-18T14:50:01.971Z,102107.36
2023-04-18T14:52:32.821Z,102105.38
2023-04-18T14:55:04.156Z,102106.01
2023-04-18T14:57:35.495Z,102109.68
2023-04-18T15:00:08.895Z,102107.61
2023-04-18T15:02:39.690Z,102104.99
2023-04-18T15:05:11.874Z,102109.00
2023-04-18T15:07:43.485Z,102106.35
2023-04-18T15:10:15.159Z,102102.91
2023-04-18T15:12:46.751Z,102105.70
2023-04-18T15:15:17.245Z,102103.84
2023-04-18T15:17:47.751Z,102102.14
2023-04-18T15:20:18.248Z,102101.38
2023-04-18T15:22:48.646Z,102097.27
2023-04-18T15:25:19.463Z,102093.77
2023-04-18T15:27:50.250Z,102090.42
2023-04-18T15:30:20.861Z,102089.48
2023-04-18T15:32:52.130Z,102088.58
2023-04-18T15:35:22.844Z,102088.42
2023-04-18T15:37:54.027Z,102089.29
2023-04-18T15:40:24.842Z,102089.70
2023-04-18T15:42:57.656Z,102093.20
2023-04-18T15:45:28.217Z,102090.48
2023-04-18T15:47:58.721Z,102091.52
2023-04-18T15:50:30.251Z,102092.52
2023-04-18T15:53:02.755Z,102097.55
2023-04-18T15:55:34.299Z,102099.28
2023-04-18T15:58:05.033Z,102098.16
2023-04-18T16:00:35.717Z,102094.33
2023-04-18T16:03:09.832Z,102092.70
2023-04-18T16:05:40.323Z,102092.69
2023-04-18T16:08:11.480Z,102091.70
2023-04-18T16:10:41.969Z,102093.52
2023-04-18T16:13:12.491Z,102095.20
2023-04-18T16:15:43.122Z,102101.40
2023-04-18T16:18:14.091Z,102098.27
2023-04-18T16:20:45.045Z,102099.10
2023-04-18T16:23:15.566Z,102099.70
2023-04-18T16:25:46.028Z,102102.84
2023-04-18T16:28:16.357Z,102099.20
2023-04-18T16:30:47.171Z,102103.58
2023-04-18T16:33:20.645Z,102097.73
2023-04-18T16:35:51.209Z,102098.23
2023-04-18T16:38:23.424Z,102101.57
2023-04-18T16:40:55.072Z,102101.08
2023-04-18T16:43:26.831Z,102099.38
2023-04-18T16:45:57.929Z,102102.77
2023-04-18T16:48:28.917Z,102099.77
2023-04-18T16:50:59.425Z,102097.80
2023-04-18T16:53:30.134Z,102093.20
2023-04-18T16:56:00.859Z,102092.35
2023-04-18T16:58:31.272Z,102090.05
2023-04-18T17:01:03.684Z,102091.52
2023-04-18T17:03:34.518Z,102094.05
2023-04-18T17:06:05.760Z,102092.23
2023-04-18T17:08:36.571Z,102089.92
2023-04-18T17:11:07.529Z,102091.54
2023-04-18T17:13:37.974Z,102096.70
2023-04-18T17:16:09.825Z,102096.20
2023-04-18T17:18:41.572Z,102095.39
2023-04-18T17:21:12.538Z,102096.39
2023-04-18T17:23:43.658Z,102097.71
2023-04-18T17:26:14.061Z,102097.95
2023-04-18T17:28:45.056Z,102101.05
2023-04-18T17:31:17.183Z,102100.11
2023-04-18T17:33:50.569Z,102102.48
2023-04-18T17:36:21.223Z,102102.17
2023-04-18T17:38:51.873Z,102101.42
2023-04-18T17:41:23.424Z,102100.10
2023-04-18T17:43:54.085Z,102104.04
2023-04-18T17:46:26.789Z,102103.02
2023-04-18T17:48:59.894Z,102102.60
2023-04-18T17:51:32.868Z,102104.51
2023-04-18T17:54:11.433Z,102104.13
2023-04-18T17:56:46.232Z,102104.56
2023-04-18T17:59:19.212Z,102106.57
2023-04-18T18:01:54.077Z,102107.38
2023-04-18T18:04:28.499Z,102104.13
2023-04-18T18:07:02.075Z,102106.27
2023-04-18T18:09:35.518Z,102107.86
2023-04-18T18:12:12.581Z,102104.81
2023-04-18T18:14:45.253Z,102106.57
2023-04-18T18:17:18.296Z,102110.36
2023-04-18T18:19:50.861Z,102109.27
2023-04-18T18:22:26.545Z,102109.89
2023-04-18T18:24:59.673Z,102107.57
2023-04-18T18:27:33.979Z,102109.86
2023-04-18T18:30:07.481Z,102108.23
2023-04-18T18:32:40.398Z,102114.52
2023-04-18T18:35:17.464Z,102117.27
2023-04-18T18:37:50.417Z,102120.88
2023-04-18T18:40:23.401Z,102122.82
2023-04-18T18:43:00.782Z,102123.81
2023-04-18T18:45:33.680Z,102125.95
2023-04-18T18:48:10.301Z,102123.16
2023-04-18T18:50:43.163Z,102126.61
2023-04-18T18:53:19.579Z,102129.73
2023-04-18T18:55:52.449Z,102130.07
2023-04-18T18:58:25.381Z,102136.60
2023-04-18T19:00:59.212Z,102137.48
2023-04-18T19:03:32.156Z,102140.78
2023-04-18T19:06:08.207Z,102145.46
2023-04-18T19:08:40.719Z,102148.05
2023-04-18T19:11:14.240Z,102154.20
2023-04-18T19:13:47.279Z,102156.48
2023-04-18T19:16:21.596Z,102152.72
2023-04-18T19:18:54.976Z,102151.33
2023-04-18T19:21:29.422Z,102153.30
2023-04-18T19:24:02.000Z,102158.19
2023-04-18T19:26:34.747Z,102156.15
2023-04-18T19:29:11.093Z,102159.39
2023-04-18T19:31:44.217Z,102161.41
2023-04-18T19:34:19.345Z,102158.85
2023-04-18T19:36:51.804Z,102162.89
2023-04-18T19:39:24.527Z,102162.02
2023-04-18T19:41:57.410Z,102162.77
2023-04-18T19:44:32.437Z,102161.45
2023-04-18T19:47:05.004Z,102167.49
2023-04-18T19:49:37.195Z,102165.34
2023-04-18T19:52:09.454Z,102166.71
2023-04-18T19:54:43.600Z,102169.33
2023-04-18T19:57:16.176Z,102170.98
2023-04-18T19:59:48.699Z,102167.98
2023-04-18T20:02:21.002Z,102170.59
2023-04-18T20:04:53.398Z,102170.06
2023-04-18T20:07:26.357Z,102173.71
2023-04-18T20:09:58.705Z,102173.70
2023-04-18T20:12:31.030Z,102174.84
2023-04-18T20:15:03.864Z,102181.34
2023-04-18T20:17:36.523Z,102186.17
2023-04-18T20:20:12.534Z,102190.45
2023-04-18T20:22:50.621Z,102185.77
2023-04-18T20:25:23.097Z,102194.31
2023-04-18T20:27:55.514Z,102192.04
2023-04-18T20:30:28.714Z,102195.13
2023-04-18T20:33:00.942Z,102192.15
2023-04-18T20:35:33.233Z,102190.36
2023-04-18T20:38:07.641Z,102189.98
2023-04-18T20:40:43.158Z,102191.76
2023-04-18T20:43:17.829Z,102197.06
2023-04-18T20:45:51.662Z,102194.52
2023-04-18T20:48:24.081Z,102193.35
2023-04-18T20:50:56.280Z,102194.45
2023-04-18T20:53:29.560Z,102194.08
2023-04-18T20:56:02.488Z,102194.51
2023-04-18T20:58:35.292Z,102193.84
2023-04-18T21:01:07.464Z,102192.95
2023-04-18T21:03:40.494Z,102195.55
2023-04-18T21:06:14.105Z,102197.96
2023-04-18T21:08:46.843Z,102201.55
2023-04-18T21:11:19.037Z,102195.70
2023-04-18T21:13:51.711Z,102197.30
2023-04-18T21:16:24.436Z,102195.60
2023-04-18T21:18:57.700Z,102204.13
2023-04-18T21:21:30.642Z,102198.83
2023-04-18T21:24:03.285Z,102208.67
2023-04-18T21:26:36.609Z,102201.64
2023-04-18T21:29:10.033Z,102205.50
2023-04-18T21:31:42.496Z,102211.56
2023-04-18T21:34:15.543Z,102207.92
2023-04-18T21:36:48.090Z,102214.61
2023-04-18T21:39:20.413Z,102206.17
2023-04-18T21:41:52.900Z,102204.06
2023-04-18T21:44:25.759Z,102202.55
2023-04-18T21:46:58.042Z,102209.21
2023-04-18T21:49:30.960Z,102204.73
2023-04-18T21:52:03.802Z,102203.12
2023-04-18T21:54:36.116Z,102208.06
2023-04-18T21:57:08.669Z,102205.88
2023-04-18T21:59:42.603Z,102205.30
2023-04-18T22:02:15.358Z,102197.51
2023-04-18T22:04:48.488Z,102197.84
2023-04-18T22:07:20.929Z,102197.66
2023-04-18T22:09:53.077Z,102195.54
2023-04-18T22:12:25.296Z,102194.59
2023-04-18T22:14:57.875Z,102189.90
2023-04-18T22:17:30.508Z,102188.85
2023-04-18T22:20:05.057Z,102192.50
2023-04-18T22:22:38.010Z,102192.34
2023-04-18T22:25:16.434Z,102191.27
2023-04-18T22:27:48.862Z,102193.27
2023-04-18T22:30:21.448Z,102195.09
2023-04-18T22:32:55.421Z,102191.05
2023-04-18T22:35:28.129Z,102189.95
2023-04-18T22:38:01.793Z,102190.86
2023-04-18T22:40:35.056Z,102191.23
2023-04-18T22:43:07.716Z,102190.27
2023-04-18T22:45:40.224Z,102190.52
2023-04-18T22:48:13.689Z,102194.41
2023-04-18T22:50:46.802Z,102189.70
2023-04-18T22:53:20.690Z,102192.46
2023-04-18T22:55:53.552Z,102194.00
2023-04-18T22:58:27.717Z,102192.92
2023-04-18T23:01:01.683Z,102193.13
2023-04-18T23:03:35.819Z,102196.02
2023-04-18T23:06:10.899Z,102191.84
2023-04-18T23:08:44.707Z,102190.46
2023-04-18T23:11:17.587Z,102191.06
2023-04-18T23:13:50.049Z,102185.39
2023-04-18T23:16:23.642Z,102184.08
2023-04-18T23:18:55.832Z,102185.49
2023-04-18T23:21:30.028Z,102187.50
2023-04-18T23:24:02.008Z,102186.90
2023-04-18T23:26:34.524Z,102185.37
2023-04-18T23:29:07.213Z,102187.04
2023-04-18T23:31:40.263Z,102180.30
2023-04-18T23:34:13.858Z,102183.14
2023-04-18T23:36:46.119Z,102185.38
2023-04-18T23:39:19.180Z,102180.85
2023-04-18T23:41:51.842Z,102182.02
2023-04-18T23:44:24.540Z,102180.95
2023-04-18T23:46:57.384Z,102182.15
2023-04-18T23:49:29.877Z,102179.20
2023-04-18T23:52:02.214Z,102180.33
2023-04-18T23:54:34.501Z,102180.60
2023-04-18T23:57:06.779Z,102176.74
2023-04-18T23:59:39.234Z,102180.00
